sensor_id;sensor_type;location;lat;lon;timestamp;P1;durP1;ratioP1;P2;durP2;ratioP2
12024;SDS011;6073;53.230;10.444;2022-09-27T00:01:36;2.90;;;2.25;;
12024;SDS011;6073;53.230;10.444;2022-09-27T00:04:01;4.20;;;2.88;;
12024;SDS011;6073;53.230;10.444;2022-09-27T00:06:28;3.08;;;2.60;;
12024;SDS011;6073;53.230;10.444;2022-09-27T00:08:57;3.35;;;2.80;;
12024;SDS011;6073;53.230;10.444;2022-09-27T00:14:00;4.30;;;2.53;;
12024;SDS011;6073;53.230;10.444;2022-09-27T00:16:27;4.65;;;2.70;;
12024;SDS011;6073;53.230;10.444;2022-09-27T00:18:59;3.83;;;2.88;;
12024;SDS011;6073;53.230;10.444;2022-09-27T00:21:26;4.00;;;2.50;;
12024;SDS011;6073;53.230;10.444;2022-09-27T00:23:54;3.78;;;3.10;;
12024;SDS011;6073;53.230;10.444;2022-09-27T00:26:20;3.53;;;3.22;;
12024;SDS011;6073;53.230;10.444;2022-09-27T00:28:46;5.30;;;3.10;;
12024;SDS011;6073;53.230;10.444;2022-09-27T00:31:24;3.65;;;3.20;;
12024;SDS011;6073;53.230;10.444;2022-09-27T00:33:53;3.22;;;2.88;;
12024;SDS011;6073;53.230;10.444;2022-09-27T00:36:19;4.35;;;3.10;;
12024;SDS011;6073;53.230;10.444;2022-09-27T00:38:46;4.30;;;3.10;;
12024;SDS011;6073;53.230;10.444;2022-09-27T00:41:13;3.83;;;3.10;;
12024;SDS011;6073;53.230;10.444;2022-09-27T00:43:55;3.13;;;2.83;;
12024;SDS011;6073;53.230;10.444;2022-09-27T00:46:46;3.13;;;2.60;;
12024;SDS011;6073;53.230;10.444;2022-09-27T00:49:41;5.18;;;3.50;;
12024;SDS011;6073;53.230;10.444;2022-09-27T00:54:50;4.28;;;3.17;;
12024;SDS011;6073;53.230;10.444;2022-09-27T00:57:19;3.70;;;3.17;;
12024;SDS011;6073;53.230;10.444;2022-09-27T00:59:49;5.43;;;3.22;;
12024;SDS011;6073;53.230;10.444;2022-09-27T01:02:19;4.63;;;3.00;;
12024;SDS011;6073;53.230;10.444;2022-09-27T01:04:46;3.42;;;3.13;;
12024;SDS011;6073;53.230;10.444;2022-09-27T01:07:13;5.10;;;3.00;;
12024;SDS011;6073;53.230;10.444;2022-09-27T01:09:39;5.13;;;3.60;;
12024;SDS011;6073;53.230;10.444;2022-09-27T01:26:23;3.47;;;3.17;;
12024;SDS011;6073;53.230;10.444;2022-09-27T01:32:08;4.97;;;3.40;;
12024;SDS011;6073;53.230;10.444;2022-09-27T01:39:32;4.97;;;3.25;;
12024;SDS011;6073;53.230;10.444;2022-09-27T01:42:07;4.40;;;3.10;;
12024;SDS011;6073;53.230;10.444;2022-09-27T01:47:45;5.53;;;3.00;;
12024;SDS011;6073;53.230;10.444;2022-09-27T01:50:16;3.85;;;3.45;;
12024;SDS011;6073;53.230;10.444;2022-09-27T01:52:58;5.15;;;3.45;;
12024;SDS011;6073;53.230;10.444;2022-09-27T01:55:32;3.42;;;2.95;;
12024;SDS011;6073;53.230;10.444;2022-09-27T01:58:23;5.60;;;3.38;;
12024;SDS011;6073;53.230;10.444;2022-09-27T02:00:56;4.47;;;3.67;;
12024;SDS011;6073;53.230;10.444;2022-09-27T02:03:24;5.45;;;3.60;;
12024;SDS011;6073;53.230;10.444;2022-09-27T02:05:58;5.22;;;3.83;;
12024;SDS011;6073;53.230;10.444;2022-09-27T02:08:37;4.35;;;3.75;;
12024;SDS011;6073;53.230;10.444;2022-09-27T02:11:24;4.22;;;3.50;;
12024;SDS011;6073;53.230;10.444;2022-09-27T02:14:07;3.63;;;3.22;;
12024;SDS011;6073;53.230;10.444;2022-09-27T02:16:53;4.78;;;3.72;;
12024;SDS011;6073;53.230;10.444;2022-09-27T02:24:23;4.10;;;3.42;;
12024;SDS011;6073;53.230;10.444;2022-09-27T02:27:02;4.47;;;3.55;;
12024;SDS011;6073;53.230;10.444;2022-09-27T02:29:38;3.88;;;3.33;;
12024;SDS011;6073;53.230;10.444;2022-09-27T02:32:08;4.40;;;3.47;;
12024;SDS011;6073;53.230;10.444;2022-09-27T02:34:34;3.53;;;3.22;;
12024;SDS011;6073;53.230;10.444;2022-09-27T02:37:02;3.95;;;3.35;;
12024;SDS011;6073;53.230;10.444;2022-09-27T02:39:28;3.42;;;3.10;;
12024;SDS011;6073;53.230;10.444;2022-09-27T02:41:54;5.03;;;3.40;;
12024;SDS011;6073;53.230;10.444;2022-09-27T02:44:25;3.75;;;3.03;;
12024;SDS011;6073;53.230;10.444;2022-09-27T02:46:55;5.47;;;3.90;;
12024;SDS011;6073;53.230;10.444;2022-09-27T02:49:48;5.50;;;3.97;;
12024;SDS011;6073;53.230;10.444;2022-09-27T02:55:17;5.78;;;3.45;;
12024;SDS011;6073;53.230;10.444;2022-09-27T03:03:27;4.88;;;3.65;;
12024;SDS011;6073;53.230;10.444;2022-09-27T03:06:12;5.72;;;3.70;;
12024;SDS011;6073;53.230;10.444;2022-09-27T03:08:42;5.03;;;3.60;;
12024;SDS011;6073;53.230;10.444;2022-09-27T03:11:08;3.90;;;3.50;;
12024;SDS011;6073;53.230;10.444;2022-09-27T03:13:34;4.43;;;4.00;;
12024;SDS011;6073;53.230;10.444;2022-09-27T03:16:02;4.50;;;3.63;;
12024;SDS011;6073;53.230;10.444;2022-09-27T03:18:29;6.22;;;3.67;;
12024;SDS011;6073;53.230;10.444;2022-09-27T03:20:55;3.95;;;3.55;;
12024;SDS011;6073;53.230;10.444;2022-09-27T03:23:21;4.97;;;4.47;;
12024;SDS011;6073;53.230;10.444;2022-09-27T03:25:47;3.90;;;3.47;;
12024;SDS011;6073;53.230;10.444;2022-09-27T03:28:13;5.28;;;3.75;;
12024;SDS011;6073;53.230;10.444;2022-09-27T03:30:39;4.40;;;4.00;;
12024;SDS011;6073;53.230;10.444;2022-09-27T03:33:06;6.03;;;4.10;;
12024;SDS011;6073;53.230;10.444;2022-09-27T03:35:33;5.05;;;4.55;;
12024;SDS011;6073;53.230;10.444;2022-09-27T03:37:59;4.88;;;3.80;;
12024;SDS011;6073;53.230;10.444;2022-09-27T03:40:24;4.97;;;4.45;;
12024;SDS011;6073;53.230;10.444;2022-09-27T03:42:50;5.78;;;4.20;;
12024;SDS011;6073;53.230;10.444;2022-09-27T03:45:16;4.45;;;3.60;;
12024;SDS011;6073;53.230;10.444;2022-09-27T03:47:42;4.68;;;4.20;;
12024;SDS011;6073;53.230;10.444;2022-09-27T03:50:08;4.60;;;4.20;;
12024;SDS011;6073;53.230;10.444;2022-09-27T03:52:35;4.47;;;4.00;;
12024;SDS011;6073;53.230;10.444;2022-09-27T03:55:01;5.60;;;4.50;;
12024;SDS011;6073;53.230;10.444;2022-09-27T03:57:26;4.47;;;4.00;;
12024;SDS011;6073;53.230;10.444;2022-09-27T03:59:53;4.70;;;4.20;;
12024;SDS011;6073;53.230;10.444;2022-09-27T04:02:18;5.90;;;4.18;;
12024;SDS011;6073;53.230;10.444;2022-09-27T04:04:44;5.25;;;3.95;;
12024;SDS011;6073;53.230;10.444;2022-09-27T04:07:09;7.03;;;3.90;;
12024;SDS011;6073;53.230;10.444;2022-09-27T04:09:35;6.22;;;3.83;;
12024;SDS011;6073;53.230;10.444;2022-09-27T04:12:02;4.60;;;3.83;;
12024;SDS011;6073;53.230;10.444;2022-09-27T04:14:27;4.00;;;3.60;;
12024;SDS011;6073;53.230;10.444;2022-09-27T04:16:53;4.85;;;4.35;;
12024;SDS011;6073;53.230;10.444;2022-09-27T04:21:47;4.15;;;3.75;;
12024;SDS011;6073;53.230;10.444;2022-09-27T04:24:13;4.00;;;3.60;;
12024;SDS011;6073;53.230;10.444;2022-09-27T04:26:38;3.58;;;3.28;;
12024;SDS011;6073;53.230;10.444;2022-09-27T04:29:05;6.03;;;3.92;;
12024;SDS011;6073;53.230;10.444;2022-09-27T04:31:36;4.90;;;4.28;;
12024;SDS011;6073;53.230;10.444;2022-09-27T04:34:05;3.95;;;3.28;;
12024;SDS011;6073;53.230;10.444;2022-09-27T04:36:31;5.22;;;3.95;;
12024;SDS011;6073;53.230;10.444;2022-09-27T04:38:57;4.00;;;3.67;;
12024;SDS011;6073;53.230;10.444;2022-09-27T04:41:24;4.15;;;3.75;;
12024;SDS011;6073;53.230;10.444;2022-09-27T04:43:52;4.40;;;3.67;;
12024;SDS011;6073;53.230;10.444;2022-09-27T04:46:21;4.85;;;4.38;;
12024;SDS011;6073;53.230;10.444;2022-09-27T04:48:48;4.85;;;3.85;;
12024;SDS011;6073;53.230;10.444;2022-09-27T04:51:14;5.70;;;4.15;;
12024;SDS011;6073;53.230;10.444;2022-09-27T04:53:41;4.38;;;4.07;;
12024;SDS011;6073;53.230;10.444;2022-09-27T04:56:08;4.40;;;4.00;;
12024;SDS011;6073;53.230;10.444;2022-09-27T04:58:34;4.35;;;3.70;;
12024;SDS011;6073;53.230;10.444;2022-09-27T05:01:00;4.75;;;3.65;;
12024;SDS011;6073;53.230;10.444;2022-09-27T05:03:28;4.53;;;4.13;;
12024;SDS011;6073;53.230;10.444;2022-09-27T05:05:54;4.47;;;4.07;;
12024;SDS011;6073;53.230;10.444;2022-09-27T05:08:20;4.35;;;3.95;;
12024;SDS011;6073;53.230;10.444;2022-09-27T05:10:46;4.40;;;4.00;;
12024;SDS011;6073;53.230;10.444;2022-09-27T05:13:12;4.93;;;4.45;;
12024;SDS011;6073;53.230;10.444;2022-09-27T05:15:39;5.00;;;4.50;;
12024;SDS011;6073;53.230;10.444;2022-09-27T05:18:05;6.22;;;4.82;;
12024;SDS011;6073;53.230;10.444;2022-09-27T05:20:32;5.70;;;5.13;;
12024;SDS011;6073;53.230;10.444;2022-09-27T05:22:58;6.70;;;5.40;;
12024;SDS011;6073;53.230;10.444;2022-09-27T05:25:24;6.78;;;5.38;;
12024;SDS011;6073;53.230;10.444;2022-09-27T05:27:50;5.70;;;4.70;;
12024;SDS011;6073;53.230;10.444;2022-09-27T05:30:16;5.85;;;5.18;;
12024;SDS011;6073;53.230;10.444;2022-09-27T05:32:42;6.45;;;4.88;;
12024;SDS011;6073;53.230;10.444;2022-09-27T05:35:09;6.72;;;5.68;;
12024;SDS011;6073;53.230;10.444;2022-09-27T05:37:35;6.00;;;5.40;;
12024;SDS011;6073;53.230;10.444;2022-09-27T05:40:01;7.13;;;5.57;;
12024;SDS011;6073;53.230;10.444;2022-09-27T05:42:26;7.03;;;5.93;;
12024;SDS011;6073;53.230;10.444;2022-09-27T05:44:52;5.72;;;5.13;;
12024;SDS011;6073;53.230;10.444;2022-09-27T05:47:18;5.93;;;4.93;;
12024;SDS011;6073;53.230;10.444;2022-09-27T05:49:45;6.50;;;5.82;;
12024;SDS011;6073;53.230;10.444;2022-09-27T05:52:11;6.95;;;5.32;;
12024;SDS011;6073;53.230;10.444;2022-09-27T05:54:36;7.50;;;6.63;;
12024;SDS011;6073;53.230;10.444;2022-09-27T05:57:02;6.38;;;5.35;;
12024;SDS011;6073;53.230;10.444;2022-09-27T05:59:27;5.15;;;4.65;;
12024;SDS011;6073;53.230;10.444;2022-09-27T06:01:53;6.85;;;5.55;;
12024;SDS011;6073;53.230;10.444;2022-09-27T06:04:19;6.55;;;5.00;;
12024;SDS011;6073;53.230;10.444;2022-09-27T06:06:45;4.78;;;4.28;;
12024;SDS011;6073;53.230;10.444;2022-09-27T06:09:12;5.63;;;4.90;;
12024;SDS011;6073;53.230;10.444;2022-09-27T06:11:39;9.55;;;7.55;;
12024;SDS011;6073;53.230;10.444;2022-09-27T06:14:05;6.25;;;5.28;;
12024;SDS011;6073;53.230;10.444;2022-09-27T06:16:31;9.00;;;5.85;;
12024;SDS011;6073;53.230;10.444;2022-09-27T06:18:56;7.57;;;6.47;;
12024;SDS011;6073;53.230;10.444;2022-09-27T06:21:22;7.97;;;5.88;;
12024;SDS011;6073;53.230;10.444;2022-09-27T06:23:48;5.10;;;4.55;;
12024;SDS011;6073;53.230;10.444;2022-09-27T06:26:14;5.45;;;4.70;;
12024;SDS011;6073;53.230;10.444;2022-09-27T06:28:41;5.28;;;4.40;;
12024;SDS011;6073;53.230;10.444;2022-09-27T06:31:06;5.47;;;4.00;;
12024;SDS011;6073;53.230;10.444;2022-09-27T06:33:33;6.30;;;4.13;;
12024;SDS011;6073;53.230;10.444;2022-09-27T06:36:03;4.75;;;3.65;;
12024;SDS011;6073;53.230;10.444;2022-09-27T06:38:29;6.93;;;4.60;;
12024;SDS011;6073;53.230;10.444;2022-09-27T06:40:55;5.93;;;4.05;;
12024;SDS011;6073;53.230;10.444;2022-09-27T06:43:25;4.78;;;3.58;;
12024;SDS011;6073;53.230;10.444;2022-09-27T06:45:51;3.85;;;3.47;;
12024;SDS011;6073;53.230;10.444;2022-09-27T06:48:17;5.80;;;4.40;;
12024;SDS011;6073;53.230;10.444;2022-09-27T06:50:44;5.25;;;4.40;;
12024;SDS011;6073;53.230;10.444;2022-09-27T06:53:11;5.82;;;3.88;;
12024;SDS011;6073;53.230;10.444;2022-09-27T06:55:38;6.25;;;4.47;;
12024;SDS011;6073;53.230;10.444;2022-09-27T06:58:04;7.95;;;4.25;;
12024;SDS011;6073;53.230;10.444;2022-09-27T07:00:50;6.28;;;4.20;;
12024;SDS011;6073;53.230;10.444;2022-09-27T07:03:17;7.57;;;4.43;;
12024;SDS011;6073;53.230;10.444;2022-09-27T07:05:52;5.55;;;3.97;;
12024;SDS011;6073;53.230;10.444;2022-09-27T07:08:20;7.43;;;4.95;;
12024;SDS011;6073;53.230;10.444;2022-09-27T07:10:45;5.20;;;3.90;;
12024;SDS011;6073;53.230;10.444;2022-09-27T07:13:11;5.72;;;4.10;;
12024;SDS011;6073;53.230;10.444;2022-09-27T07:15:37;5.72;;;4.78;;
12024;SDS011;6073;53.230;10.444;2022-09-27T07:18:06;4.90;;;3.70;;
12024;SDS011;6073;53.230;10.444;2022-09-27T07:20:32;4.10;;;3.70;;
12024;SDS011;6073;53.230;10.444;2022-09-27T07:23:01;3.88;;;3.47;;
12024;SDS011;6073;53.230;10.444;2022-09-27T07:25:28;3.92;;;3.20;;
12024;SDS011;6073;53.230;10.444;2022-09-27T07:27:54;4.03;;;3.17;;
12024;SDS011;6073;53.230;10.444;2022-09-27T07:30:27;4.15;;;3.00;;
12024;SDS011;6073;53.230;10.444;2022-09-27T07:32:57;4.13;;;3.47;;
12024;SDS011;6073;53.230;10.444;2022-09-27T07:35:23;4.40;;;3.28;;
12024;SDS011;6073;53.230;10.444;2022-09-27T07:37:49;4.25;;;3.03;;
12024;SDS011;6073;53.230;10.444;2022-09-27T07:40:15;4.32;;;2.97;;
12024;SDS011;6073;53.230;10.444;2022-09-27T07:42:41;3.97;;;2.83;;
12024;SDS011;6073;53.230;10.444;2022-09-27T07:48:28;2.53;;;2.10;;
12024;SDS011;6073;53.230;10.444;2022-09-27T07:50:59;3.47;;;2.25;;
12024;SDS011;6073;53.230;10.444;2022-09-27T07:53:24;3.35;;;2.45;;
12024;SDS011;6073;53.230;10.444;2022-09-27T07:55:50;2.38;;;2.10;;
12024;SDS011;6073;53.230;10.444;2022-09-27T07:58:17;2.90;;;2.55;;
12024;SDS011;6073;53.230;10.444;2022-09-27T08:00:44;3.28;;;2.05;;
12024;SDS011;6073;53.230;10.444;2022-09-27T08:03:10;4.95;;;2.22;;
12024;SDS011;6073;53.230;10.444;2022-09-27T08:05:54;2.85;;;1.80;;
12024;SDS011;6073;53.230;10.444;2022-09-27T08:11:16;3.67;;;2.08;;
12024;SDS011;6073;53.230;10.444;2022-09-27T08:13:47;1.75;;;1.50;;
12024;SDS011;6073;53.230;10.444;2022-09-27T08:16:16;1.60;;;1.50;;
12024;SDS011;6073;53.230;10.444;2022-09-27T08:18:48;1.67;;;1.30;;
12024;SDS011;6073;53.230;10.444;2022-09-27T08:21:14;1.30;;;1.20;;
12024;SDS011;6073;53.230;10.444;2022-09-27T08:23:41;1.70;;;1.60;;
12024;SDS011;6073;53.230;10.444;2022-09-27T08:26:06;1.38;;;1.27;;
12024;SDS011;6073;53.230;10.444;2022-09-27T08:28:32;1.48;;;1.20;;
12024;SDS011;6073;53.230;10.444;2022-09-27T08:30:57;2.88;;;1.40;;
12024;SDS011;6073;53.230;10.444;2022-09-27T08:33:24;1.67;;;1.33;;
12024;SDS011;6073;53.230;10.444;2022-09-27T08:35:50;1.20;;;1.10;;
12024;SDS011;6073;53.230;10.444;2022-09-27T08:38:20;2.80;;;1.30;;
12024;SDS011;6073;53.230;10.444;2022-09-27T08:40:53;1.80;;;1.30;;
12024;SDS011;6073;53.230;10.444;2022-09-27T08:48:47;1.55;;;1.45;;
12024;SDS011;6073;53.230;10.444;2022-09-27T08:51:25;2.40;;;1.52;;
12024;SDS011;6073;53.230;10.444;2022-09-27T08:54:00;1.77;;;1.45;;
12024;SDS011;6073;53.230;10.444;2022-09-27T08:56:30;1.83;;;1.20;;
12024;SDS011;6073;53.230;10.444;2022-09-27T08:59:09;1.70;;;1.60;;
12024;SDS011;6073;53.230;10.444;2022-09-27T09:01:57;2.45;;;1.40;;
12024;SDS011;6073;53.230;10.444;2022-09-27T09:04:37;2.03;;;1.30;;
12024;SDS011;6073;53.230;10.444;2022-09-27T09:07:28;1.60;;;1.50;;
12024;SDS011;6073;53.230;10.444;2022-09-27T09:21:30;3.35;;;1.75;;
12024;SDS011;6073;53.230;10.444;2022-09-27T09:33:10;1.70;;;1.60;;
12024;SDS011;6073;53.230;10.444;2022-09-27T09:38:23;1.88;;;1.38;;
12024;SDS011;6073;53.230;10.444;2022-09-27T09:41:06;2.78;;;1.38;;
12024;SDS011;6073;53.230;10.444;2022-09-27T09:43:53;1.70;;;1.60;;
12024;SDS011;6073;53.230;10.444;2022-09-27T09:46:27;3.67;;;1.60;;
12024;SDS011;6073;53.230;10.444;2022-09-27T09:49:02;2.45;;;1.58;;
12024;SDS011;6073;53.230;10.444;2022-09-27T09:51:45;1.67;;;1.58;;
12024;SDS011;6073;53.230;10.444;2022-09-27T09:59:48;2.22;;;1.83;;
12024;SDS011;6073;53.230;10.444;2022-09-27T10:02:38;1.98;;;1.73;;
12024;SDS011;6073;53.230;10.444;2022-09-27T10:05:06;2.95;;;2.00;;
12024;SDS011;6073;53.230;10.444;2022-09-27T10:07:38;1.92;;;1.83;;
12024;SDS011;6073;53.230;10.444;2022-09-27T10:10:07;2.00;;;1.85;;
12024;SDS011;6073;53.230;10.444;2022-09-27T10:12:39;2.38;;;1.67;;
12024;SDS011;6073;53.230;10.444;2022-09-27T10:15:05;1.92;;;1.83;;
12024;SDS011;6073;53.230;10.444;2022-09-27T10:17:35;1.70;;;1.60;;
12024;SDS011;6073;53.230;10.444;2022-09-27T10:20:07;2.67;;;1.73;;
12024;SDS011;6073;53.230;10.444;2022-09-27T10:22:53;2.40;;;2.20;;
12024;SDS011;6073;53.230;10.444;2022-09-27T10:25:23;2.65;;;2.03;;
12024;SDS011;6073;53.230;10.444;2022-09-27T10:27:51;3.65;;;2.30;;
12024;SDS011;6073;53.230;10.444;2022-09-27T10:30:21;2.85;;;2.20;;
12024;SDS011;6073;53.230;10.444;2022-09-27T10:32:49;3.28;;;2.35;;
12024;SDS011;6073;53.230;10.444;2022-09-27T10:40:42;2.85;;;2.20;;
12024;SDS011;6073;53.230;10.444;2022-09-27T10:43:28;2.28;;;2.00;;
12024;SDS011;6073;53.230;10.444;2022-09-27T10:48:47;2.28;;;1.90;;
12024;SDS011;6073;53.230;10.444;2022-09-27T10:51:31;2.00;;;1.90;;
12024;SDS011;6073;53.230;10.444;2022-09-27T10:53:57;1.98;;;1.70;;
12024;SDS011;6073;53.230;10.444;2022-09-27T10:56:28;2.28;;;2.08;;
12024;SDS011;6073;53.230;10.444;2022-09-27T10:58:56;1.38;;;1.30;;
12024;SDS011;6073;53.230;10.444;2022-09-27T11:01:24;1.90;;;1.60;;
12024;SDS011;6073;53.230;10.444;2022-09-27T11:03:52;1.67;;;1.58;;
12024;SDS011;6073;53.230;10.444;2022-09-27T11:08:49;1.50;;;1.40;;
12024;SDS011;6073;53.230;10.444;2022-09-27T11:11:26;2.00;;;1.52;;
12024;SDS011;6073;53.230;10.444;2022-09-27T11:13:59;1.60;;;1.42;;
12024;SDS011;6073;53.230;10.444;2022-09-27T11:19:21;3.45;;;1.40;;
12024;SDS011;6073;53.230;10.444;2022-09-27T11:22:04;1.73;;;1.40;;
12024;SDS011;6073;53.230;10.444;2022-09-27T11:39:10;2.90;;;1.90;;
12024;SDS011;6073;53.230;10.444;2022-09-27T11:41:55;3.20;;;2.15;;
12024;SDS011;6073;53.230;10.444;2022-09-27T11:53:19;3.40;;;1.92;;
12024;SDS011;6073;53.230;10.444;2022-09-27T11:58:52;3.13;;;2.05;;
12024;SDS011;6073;53.230;10.444;2022-09-27T12:10:08;2.47;;;2.28;;
12024;SDS011;6073;53.230;10.444;2022-09-27T12:12:38;3.88;;;2.50;;
12024;SDS011;6073;53.230;10.444;2022-09-27T12:15:28;2.65;;;2.45;;
12024;SDS011;6073;53.230;10.444;2022-09-27T12:18:08;3.38;;;2.47;;
12024;SDS011;6073;53.230;10.444;2022-09-27T12:20:50;4.03;;;2.45;;
12024;SDS011;6073;53.230;10.444;2022-09-27T12:23:19;2.67;;;2.47;;
12024;SDS011;6073;53.230;10.444;2022-09-27T12:25:56;3.00;;;2.67;;
12024;SDS011;6073;53.230;10.444;2022-09-27T12:28:33;3.08;;;2.58;;
12024;SDS011;6073;53.230;10.444;2022-09-27T12:31:35;2.70;;;2.25;;
12024;SDS011;6073;53.230;10.444;2022-09-27T12:37:13;1.80;;;1.70;;
12024;SDS011;6073;53.230;10.444;2022-09-27T12:39:55;2.85;;;2.05;;
12024;SDS011;6073;53.230;10.444;2022-09-27T12:42:32;2.85;;;2.55;;
12024;SDS011;6073;53.230;10.444;2022-09-27T12:48:38;2.85;;;2.65;;
12024;SDS011;6073;53.230;10.444;2022-09-27T12:51:15;2.50;;;2.30;;
12024;SDS011;6073;53.230;10.444;2022-09-27T12:54:13;2.40;;;2.20;;
12024;SDS011;6073;53.230;10.444;2022-09-27T13:14:18;2.08;;;1.70;;
12024;SDS011;6073;53.230;10.444;2022-09-27T13:16:47;3.75;;;1.85;;
12024;SDS011;6073;53.230;10.444;2022-09-27T13:21:59;1.92;;;1.77;;
12024;SDS011;6073;53.230;10.444;2022-09-27T13:32:35;1.85;;;1.50;;
12024;SDS011;6073;53.230;10.444;2022-09-27T13:35:21;3.33;;;1.88;;
12024;SDS011;6073;53.230;10.444;2022-09-27T13:37:56;2.17;;;1.90;;
12024;SDS011;6073;53.230;10.444;2022-09-27T13:40:27;2.00;;;1.80;;
12024;SDS011;6073;53.230;10.444;2022-09-27T13:45:38;1.98;;;1.83;;
12024;SDS011;6073;53.230;10.444;2022-09-27T13:48:17;3.15;;;1.90;;
12024;SDS011;6073;53.230;10.444;2022-09-27T13:50:50;2.00;;;1.70;;
12024;SDS011;6073;53.230;10.444;2022-09-27T13:53:38;2.03;;;1.70;;
12024;SDS011;6073;53.230;10.444;2022-09-27T13:59:45;2.17;;;1.73;;
12024;SDS011;6073;53.230;10.444;2022-09-27T14:02:18;2.67;;;2.10;;
12024;SDS011;6073;53.230;10.444;2022-09-27T14:04:53;3.35;;;2.10;;
12024;SDS011;6073;53.230;10.444;2022-09-27T14:07:39;2.00;;;1.90;;
12024;SDS011;6073;53.230;10.444;2022-09-27T14:10:14;1.90;;;1.80;;
12024;SDS011;6073;53.230;10.444;2022-09-27T14:12:44;1.75;;;1.60;;
12024;SDS011;6073;53.230;10.444;2022-09-27T14:15:17;2.95;;;1.73;;
12024;SDS011;6073;53.230;10.444;2022-09-27T14:17:54;2.90;;;2.10;;
12024;SDS011;6073;53.230;10.444;2022-09-27T14:20:33;3.20;;;1.98;;
12024;SDS011;6073;53.230;10.444;2022-09-27T14:23:12;4.88;;;1.85;;
12024;SDS011;6073;53.230;10.444;2022-09-27T14:25:51;3.72;;;2.05;;
12024;SDS011;6073;53.230;10.444;2022-09-27T14:28:29;1.70;;;1.50;;
12024;SDS011;6073;53.230;10.444;2022-09-27T14:31:13;1.92;;;1.60;;
12024;SDS011;6073;53.230;10.444;2022-09-27T14:33:42;1.88;;;1.70;;
12024;SDS011;6073;53.230;10.444;2022-09-27T14:39:15;3.00;;;1.60;;
12024;SDS011;6073;53.230;10.444;2022-09-27T14:41:46;3.38;;;1.70;;
12024;SDS011;6073;53.230;10.444;2022-09-27T14:44:15;1.92;;;1.38;;
12024;SDS011;6073;53.230;10.444;2022-09-27T14:46:43;3.72;;;1.67;;
12024;SDS011;6073;53.230;10.444;2022-09-27T14:49:16;2.28;;;1.45;;
12024;SDS011;6073;53.230;10.444;2022-09-27T14:51:53;2.63;;;1.40;;
12024;SDS011;6073;53.230;10.444;2022-09-27T14:54:26;2.15;;;1.40;;
12024;SDS011;6073;53.230;10.444;2022-09-27T14:56:54;2.75;;;2.08;;
12024;SDS011;6073;53.230;10.444;2022-09-27T15:01:55;2.78;;;2.10;;
12024;SDS011;6073;53.230;10.444;2022-09-27T15:04:25;2.28;;;1.80;;
12024;SDS011;6073;53.230;10.444;2022-09-27T15:06:53;2.15;;;1.92;;
12024;SDS011;6073;53.230;10.444;2022-09-27T15:09:19;2.90;;;2.08;;
12024;SDS011;6073;53.230;10.444;2022-09-27T15:11:47;4.30;;;1.77;;
12024;SDS011;6073;53.230;10.444;2022-09-27T15:14:18;3.58;;;2.28;;
12024;SDS011;6073;53.230;10.444;2022-09-27T15:16:49;3.25;;;2.20;;
12024;SDS011;6073;53.230;10.444;2022-09-27T15:19:21;4.22;;;2.33;;
12024;SDS011;6073;53.230;10.444;2022-09-27T15:21:49;5.35;;;3.05;;
12024;SDS011;6073;53.230;10.444;2022-09-27T15:27:01;2.53;;;2.33;;
12024;SDS011;6073;53.230;10.444;2022-09-27T15:29:27;2.38;;;1.85;;
12024;SDS011;6073;53.230;10.444;2022-09-27T15:32:01;5.30;;;2.45;;
12024;SDS011;6073;53.230;10.444;2022-09-27T15:34:32;3.92;;;2.10;;
12024;SDS011;6073;53.230;10.444;2022-09-27T15:37:00;4.00;;;2.50;;
12024;SDS011;6073;53.230;10.444;2022-09-27T15:39:38;6.03;;;2.80;;
12024;SDS011;6073;53.230;10.444;2022-09-27T15:42:11;3.80;;;2.78;;
12024;SDS011;6073;53.230;10.444;2022-09-27T15:44:53;4.10;;;2.55;;
12024;SDS011;6073;53.230;10.444;2022-09-27T15:53:04;3.13;;;2.58;;
12024;SDS011;6073;53.230;10.444;2022-09-27T15:55:31;2.70;;;2.50;;
12024;SDS011;6073;53.230;10.444;2022-09-27T15:57:59;3.90;;;2.90;;
12024;SDS011;6073;53.230;10.444;2022-09-27T16:00:28;2.92;;;2.60;;
12024;SDS011;6073;53.230;10.444;2022-09-27T16:02:54;5.28;;;2.67;;
12024;SDS011;6073;53.230;10.444;2022-09-27T16:05:19;2.67;;;2.35;;
12024;SDS011;6073;53.230;10.444;2022-09-27T16:07:49;4.13;;;2.13;;
12024;SDS011;6073;53.230;10.444;2022-09-27T16:10:21;3.55;;;2.38;;
12024;SDS011;6073;53.230;10.444;2022-09-27T16:12:53;3.40;;;2.60;;
12024;SDS011;6073;53.230;10.444;2022-09-27T16:15:24;3.03;;;2.72;;
12024;SDS011;6073;53.230;10.444;2022-09-27T16:17:50;3.47;;;2.42;;
12024;SDS011;6073;53.230;10.444;2022-09-27T16:20:17;3.35;;;2.55;;
12024;SDS011;6073;53.230;10.444;2022-09-27T16:22:49;2.50;;;2.10;;
12024;SDS011;6073;53.230;10.444;2022-09-27T16:25:15;4.78;;;2.65;;
12024;SDS011;6073;53.230;10.444;2022-09-27T16:27:41;3.67;;;2.50;;
12024;SDS011;6073;53.230;10.444;2022-09-27T16:30:07;4.28;;;3.03;;
12024;SDS011;6073;53.230;10.444;2022-09-27T16:32:33;2.50;;;1.95;;
12024;SDS011;6073;53.230;10.444;2022-09-27T16:35:03;4.15;;;3.13;;
12024;SDS011;6073;53.230;10.444;2022-09-27T16:37:29;3.83;;;2.83;;
12024;SDS011;6073;53.230;10.444;2022-09-27T16:39:55;5.05;;;3.00;;
12024;SDS011;6073;53.230;10.444;2022-09-27T16:42:20;3.95;;;3.65;;
12024;SDS011;6073;53.230;10.444;2022-09-27T16:44:46;5.68;;;5.20;;
12024;SDS011;6073;53.230;10.444;2022-09-27T16:47:14;16.08;;;14.75;;
12024;SDS011;6073;53.230;10.444;2022-09-27T16:49:40;5.05;;;4.00;;
12024;SDS011;6073;53.230;10.444;2022-09-27T16:52:24;2.60;;;1.95;;
12024;SDS011;6073;53.230;10.444;2022-09-27T16:54:50;2.83;;;2.10;;
12024;SDS011;6073;53.230;10.444;2022-09-27T16:57:15;2.60;;;2.40;;
12024;SDS011;6073;53.230;10.444;2022-09-27T16:59:41;2.25;;;1.70;;
12024;SDS011;6073;53.230;10.444;2022-09-27T17:02:07;3.38;;;2.08;;
12024;SDS011;6073;53.230;10.444;2022-09-27T17:04:33;2.90;;;1.55;;
12024;SDS011;6073;53.230;10.444;2022-09-27T17:06:59;3.90;;;3.50;;
12024;SDS011;6073;53.230;10.444;2022-09-27T17:09:24;4.45;;;4.05;;
12024;SDS011;6073;53.230;10.444;2022-09-27T17:11:50;3.08;;;2.33;;
12024;SDS011;6073;53.230;10.444;2022-09-27T17:14:15;4.00;;;3.40;;
12024;SDS011;6073;53.230;10.444;2022-09-27T17:16:42;2.42;;;1.52;;
12024;SDS011;6073;53.230;10.444;2022-09-27T17:19:08;1.98;;;1.70;;
12024;SDS011;6073;53.230;10.444;2022-09-27T17:21:37;2.53;;;1.42;;
12024;SDS011;6073;53.230;10.444;2022-09-27T17:24:02;2.67;;;1.85;;
12024;SDS011;6073;53.230;10.444;2022-09-27T17:26:29;3.13;;;2.25;;
12024;SDS011;6073;53.230;10.444;2022-09-27T17:28:55;5.10;;;4.50;;
12024;SDS011;6073;53.230;10.444;2022-09-27T17:31:22;2.40;;;1.65;;
12024;SDS011;6073;53.230;10.444;2022-09-27T17:33:48;2.60;;;1.67;;
12024;SDS011;6073;53.230;10.444;2022-09-27T17:36:16;3.10;;;2.03;;
12024;SDS011;6073;53.230;10.444;2022-09-27T17:38:43;2.10;;;1.90;;
12024;SDS011;6073;53.230;10.444;2022-09-27T17:41:11;2.22;;;1.67;;
12024;SDS011;6073;53.230;10.444;2022-09-27T17:43:38;1.80;;;1.60;;
12024;SDS011;6073;53.230;10.444;2022-09-27T17:46:11;3.65;;;1.60;;
12024;SDS011;6073;53.230;10.444;2022-09-27T17:48:40;2.13;;;1.60;;
12024;SDS011;6073;53.230;10.444;2022-09-27T17:51:24;1.92;;;1.65;;
12024;SDS011;6073;53.230;10.444;2022-09-27T17:53:50;2.17;;;1.52;;
12024;SDS011;6073;53.230;10.444;2022-09-27T17:56:16;1.60;;;1.50;;
12024;SDS011;6073;53.230;10.444;2022-09-27T17:58:45;1.55;;;1.40;;
12024;SDS011;6073;53.230;10.444;2022-09-27T18:01:15;2.03;;;1.42;;
12024;SDS011;6073;53.230;10.444;2022-09-27T18:03:42;1.58;;;1.25;;
12024;SDS011;6073;53.230;10.444;2022-09-27T18:06:09;1.75;;;1.15;;
12024;SDS011;6073;53.230;10.444;2022-09-27T18:08:36;1.83;;;1.60;;
12024;SDS011;6073;53.230;10.444;2022-09-27T18:11:03;4.07;;;3.78;;
12024;SDS011;6073;53.230;10.444;2022-09-27T18:13:36;2.05;;;1.25;;
12024;SDS011;6073;53.230;10.444;2022-09-27T18:16:06;1.20;;;1.10;;
12024;SDS011;6073;53.230;10.444;2022-09-27T18:18:33;1.30;;;1.20;;